Date,TemperatureHighF,TemperatureAvgF,TemperatureLowF,DewpointHighF,DewpointAvgF,DewpointLowF,HumidityHigh,HumidityAvg,HumidityLow,PressureMaxIn,PressureMinIn,WindSpeedMaxMPH,WindSpeedAvgMPH,GustSpeedMaxMPH,PrecipitationSumIn
2013-3-1,34.2,31.4,27.1,29.4,21.8,14.0,86,68,53,0.00,40.00,0,0,0,0.00
2013-3-2,30.7,26.8,25.2,20.8,17.0,-99.9,82,67,51,0.00,40.00,0,-4,0,0.00
2013-3-3,30.4,25.6,23.4,18.9,12.9,6.7,79,59,41,0.00,40.00,0,0,0,0.00
2013-3-4,43.3,31.1,21.0,15.5,11.4,7.3,66,45,29,0.00,40.00,13,2,13,0.00
2013-3-5,41.2,35.0,29.8,32.2,21.9,12.3,96,61,40,0.00,40.00,12,6,12,0.00
2013-3-6,41.2,34.5,31.6,32.3,29.4,25.3,98,83,60,0.00,40.00,12,2,12,0.00
2013-3-7,43.7,35.1,30.9,25.7,23.7,20.4,79,64,44,0.00,40.00,15,5,15,0.00
2013-3-8,48.7,36.7,27.0,27.1,20.9,15.7,79,55,31,0.00,40.00,8,2,8,0.00
2013-3-9,62.2,44.0,27.9,25.2,21.5,18.4,77,45,21,0.00,40.00,10,4,10,0.00
2013-3-10,76.1,59.8,47.8,28.6,21.8,14.9,40,24,13,0.00,40.00,17,5,17,0.00
2013-3-11,62.1,54.5,41.0,49.6,32.4,22.6,92,48,24,0.00,40.00,22,8,22,0.00
2013-3-12,41.2,36.4,33.3,33.0,26.5,21.0,92,68,52,0.00,40.00,19,7,19,0.00
2013-3-13,33.8,30.2,27.1,31.2,19.6,10.1,93,66,45,0.00,40.00,25,7,25,0.00
2013-3-14,44.4,31.8,22.3,16.2,12.5,9.0,68,46,30,0.00,40.00,18,6,18,0.00
2013-3-15,52.3,40.8,30.9,39.5,23.1,11.4,88,50,38,0.00,40.00,15,4,15,0.00
2013-3-16,58.1,44.1,33.3,46.6,37.7,26.4,95,79,53,0.00,40.00,22,5,22,0.00
2013-3-17,37.9,34.2,31.8,27.2,22.2,17.5,80,62,44,0.00,40.00,13,4,13,0.00
2013-3-18,52.3,41.0,31.8,49.2,37.6,19.8,97,88,56,0.00,40.00,23,5,23,0.00
2013-3-19,42.4,36.6,31.1,33.9,18.1,8.0,73,48,30,0.00,40.00,33,10,33,0.00
2013-3-20,41.9,32.0,22.8,15.9,10.0,3.7,48,40,30,0.00,40.00,24,8,24,0.00
2013-3-21,31.8,24.4,17.6,13.6,7.9,1.7,75,50,35,0.00,40.00,18,5,18,0.00
2013-3-22,45.9,31.8,20.5,15.4,10.9,7.7,67,43,28,0.00,40.00,17,5,17,0.00
2013-3-23,52.9,38.6,28.2,18.9,13.5,9.6,50,36,24,0.00,40.00,12,2,12,0.00
2013-3-24,36.7,33.3,30.9,31.7,21.9,13.2,96,65,39,0.00,40.00,13,6,13,0.00
2013-3-25,34.3,33.2,32.2,32.9,30.4,26.5,98,90,77,0.00,40.00,14,1,14,0.00
2013-3-26,42.8,35.4,31.6,30.4,24.6,15.8,91,67,40,0.00,40.00,15,3,15,0.00
2013-3-27,42.6,36.8,32.2,27.2,21.0,14.5,80,54,35,0.00,40.00,21,6,21,0.00
2013-3-28,50.9,39.4,28.8,20.6,18.2,14.7,64,44,29,0.00,40.00,17,5,17,0.00
2013-3-29,57.9,43.5,32.7,24.0,20.4,16.4,62,41,26,0.00,40.00,15,2,15,0.00
2013-3-30,62.8,48.4,35.2,26.2,18.7,12.5,54,33,16,0.00,40.00,13,2,13,0.00
2013-3-31,54.5,48.1,41.5,43.8,32.5,16.3,85,57,28,0.00,40.00,17,4,17,0.00